createdAt,value
2022-07-30T00:00:54.263Z,11.60
2022-07-30T00:03:21.966Z,11.85
2022-07-30T00:05:49.904Z,11.50
2022-07-30T00:08:17.513Z,10.77
2022-07-30T00:10:45.166Z,10.70
2022-07-30T00:13:14.935Z,12.82
2022-07-30T00:15:42.817Z,11.52
2022-07-30T00:18:10.441Z,11.27
2022-07-30T00:20:43.553Z,12.80
2022-07-30T00:23:11.989Z,11.32
2022-07-30T00:25:39.598Z,11.25
2022-07-30T00:28:07.209Z,12.05
2022-07-30T00:30:36.236Z,11.40
2022-07-30T00:33:03.931Z,12.23
2022-07-30T00:35:31.538Z,11.40
2022-07-30T00:37:59.225Z,11.13
2022-07-30T00:40:27.072Z,11.57
2022-07-30T00:42:54.652Z,11.50
2022-07-30T00:45:22.308Z,11.80
2022-07-30T00:47:51.253Z,12.02
2022-07-30T00:50:18.870Z,12.77
2022-07-30T00:52:46.879Z,11.55
2022-07-30T00:55:16.393Z,11.73
2022-07-30T00:57:44.232Z,12.70
2022-07-30T01:00:14.493Z,11.80
2022-07-30T01:02:42.102Z,11.65
2022-07-30T01:05:11.752Z,11.68
2022-07-30T01:07:39.573Z,11.63
2022-07-30T01:10:08.661Z,11.20
2022-07-30T01:12:36.400Z,12.05
2022-07-30T01:15:06.165Z,11.15
2022-07-30T01:17:34.871Z,11.88
2022-07-30T01:20:05.669Z,11.45
2022-07-30T01:22:58.953Z,11.85
2022-07-30T01:25:48.967Z,11.98
2022-07-30T01:28:20.197Z,12.02
2022-07-30T01:30:50.157Z,11.70
2022-07-30T01:33:18.825Z,12.00
2022-07-30T01:35:47.701Z,11.88
2022-07-30T01:38:17.165Z,11.63
2022-07-30T01:40:46.005Z,12.02
2022-07-30T01:43:15.259Z,12.82
2022-07-30T01:45:44.391Z,11.60
2022-07-30T01:48:13.303Z,12.13
2022-07-30T01:50:44.410Z,13.18
2022-07-30T01:53:15.931Z,12.32
2022-07-30T01:55:44.146Z,12.63
2022-07-30T01:58:14.821Z,12.90
2022-07-30T02:00:44.395Z,12.15
2022-07-30T02:03:12.337Z,11.88
2022-07-30T02:05:42.290Z,11.65
2022-07-30T02:08:15.209Z,12.55
2022-07-30T02:10:45.213Z,11.88
2022-07-30T02:13:16.295Z,12.23
2022-07-30T02:15:47.094Z,11.65
2022-07-30T02:18:18.104Z,12.77
2022-07-30T02:20:56.309Z,12.32
2022-07-30T02:23:25.128Z,12.75
2022-07-30T02:25:53.309Z,12.50
2022-07-30T02:28:23.093Z,12.18
2022-07-30T02:30:52.818Z,13.32
2022-07-30T02:33:23.797Z,13.20
2022-07-30T02:35:54.064Z,12.23
2022-07-30T02:38:22.207Z,12.50
2022-07-30T02:40:51.355Z,12.82
2022-07-30T02:43:20.778Z,12.23
2022-07-30T02:45:50.374Z,12.60
2022-07-30T02:48:31.198Z,12.18
2022-07-30T02:51:04.346Z,12.48
2022-07-30T02:53:32.294Z,12.23
2022-07-30T02:56:01.526Z,11.90
2022-07-30T02:58:29.811Z,12.80
2022-07-30T03:00:59.400Z,12.27
2022-07-30T03:03:29.339Z,13.13
2022-07-30T03:05:57.345Z,12.07
2022-07-30T03:08:25.912Z,12.07
2022-07-30T03:10:55.136Z,12.82
2022-07-30T03:13:24.265Z,12.70
2022-07-30T03:15:52.934Z,14.52
2022-07-30T03:18:22.308Z,12.55
2022-07-30T03:20:52.649Z,13.45
2022-07-30T03:23:21.085Z,12.48
2022-07-30T03:25:52.390Z,12.52
2022-07-30T03:28:23.342Z,13.02
2022-07-30T03:30:51.511Z,12.13
2022-07-30T03:33:19.913Z,12.93
2022-07-30T03:35:49.307Z,12.98
2022-07-30T03:38:17.645Z,12.27
2022-07-30T03:40:45.796Z,11.98
2022-07-30T03:43:32.541Z,12.38
2022-07-30T03:46:02.419Z,12.93
2022-07-30T03:48:30.509Z,12.32
2022-07-30T03:50:59.767Z,13.60
2022-07-30T03:53:27.831Z,13.25
2022-07-30T03:55:56.048Z,13.25
2022-07-30T03:58:23.773Z,12.13
2022-07-30T04:00:52.188Z,13.35
2022-07-30T04:03:25.895Z,13.25
2022-07-30T04:05:53.668Z,12.93
2022-07-30T04:08:23.096Z,13.60
2022-07-30T04:10:51.329Z,12.68
2022-07-30T04:13:19.156Z,13.45
2022-07-30T04:16:05.841Z,13.18
2022-07-30T04:18:41.743Z,12.55
2022-07-30T04:21:16.071Z,12.68
2022-07-30T04:24:04.060Z,13.27
2022-07-30T04:26:35.370Z,12.60
2022-07-30T04:29:03.858Z,12.65
2022-07-30T04:31:40.438Z,13.02
2022-07-30T04:34:09.283Z,12.50
2022-07-30T04:36:37.064Z,13.23
2022-07-30T04:39:06.099Z,12.15
2022-07-30T04:41:48.081Z,12.30
2022-07-30T04:44:18.009Z,13.15
2022-07-30T04:46:45.740Z,13.00
2022-07-30T04:49:14.132Z,12.93
2022-07-30T04:51:42.226Z,12.60
2022-07-30T04:54:15.494Z,12.57
2022-07-30T04:56:52.474Z,12.80
2022-07-30T04:59:22.952Z,12.93
2022-07-30T05:01:51.474Z,14.85
2022-07-30T05:04:19.660Z,12.32
2022-07-30T05:06:47.621Z,12.50
2022-07-30T05:09:17.374Z,12.90
2022-07-30T05:11:51.241Z,14.02
2022-07-30T05:14:18.855Z,12.52
2022-07-30T05:16:46.505Z,12.38
2022-07-30T05:19:14.166Z,13.20
2022-07-30T05:21:41.724Z,13.15
2022-07-30T05:24:09.599Z,13.02
2022-07-30T05:26:38.613Z,13.70
2022-07-30T05:29:07.034Z,12.90
2022-07-30T05:31:35.141Z,13.50
2022-07-30T05:34:03.832Z,13.05
2022-07-30T05:36:31.762Z,12.82
2022-07-30T05:38:59.490Z,12.55
2022-07-30T05:41:31.848Z,12.98
2022-07-30T05:44:01.859Z,12.73
2022-07-30T05:46:31.201Z,13.52
2022-07-30T05:48:59.305Z,14.35
2022-07-30T05:51:26.938Z,13.05
2022-07-30T05:53:54.543Z,14.60
2022-07-30T05:56:22.127Z,12.43
2022-07-30T05:58:49.715Z,13.82
2022-07-30T06:01:18.696Z,13.48
2022-07-30T06:03:46.367Z,13.10
2022-07-30T06:06:14.025Z,12.95
2022-07-30T06:08:41.655Z,12.85
2022-07-30T06:11:09.895Z,12.52
2022-07-30T06:13:38.197Z,12.52
2022-07-30T06:16:06.465Z,12.65
2022-07-30T06:18:35.446Z,13.05
2022-07-30T06:21:03.044Z,13.13
2022-07-30T06:23:30.617Z,13.00
2022-07-30T06:25:58.260Z,13.48
2022-07-30T06:28:37.721Z,13.60
2022-07-30T06:31:06.408Z,13.45
2022-07-30T06:33:35.452Z,13.25
2022-07-30T06:36:03.095Z,13.73
2022-07-30T06:38:30.794Z,13.95
2022-07-30T06:41:02.819Z,14.77
2022-07-30T06:43:31.984Z,14.40
2022-07-30T06:45:59.736Z,14.50
2022-07-30T06:48:27.643Z,14.25
2022-07-30T06:50:56.636Z,14.15
2022-07-30T06:53:24.267Z,14.43
2022-07-30T06:55:53.066Z,14.55
2022-07-30T06:58:26.191Z,14.40
2022-07-30T07:00:53.826Z,15.02
2022-07-30T07:03:21.463Z,14.63
2022-07-30T07:05:49.159Z,17.83
2022-07-30T07:08:18.511Z,17.45
2022-07-30T07:10:46.170Z,16.33
2022-07-30T07:13:13.806Z,17.90
2022-07-30T07:15:41.518Z,16.55
2022-07-30T07:18:09.224Z,17.95
2022-07-30T07:20:36.900Z,16.90
2022-07-30T07:23:09.314Z,16.40
2022-07-30T07:25:41.361Z,16.98
2022-07-30T07:28:11.038Z,15.82
2022-07-30T07:30:41.274Z,15.38
2022-07-30T07:33:09.105Z,16.75
2022-07-30T07:35:48.468Z,16.52
2022-07-30T07:38:17.032Z,16.88
2022-07-30T07:40:46.321Z,16.33
2022-07-30T07:43:14.639Z,16.80
2022-07-30T07:45:42.818Z,16.92
2022-07-30T07:48:10.661Z,17.13
2022-07-30T07:50:38.399Z,17.00
2022-07-30T07:53:06.324Z,16.40
2022-07-30T07:55:33.977Z,16.02
2022-07-30T07:58:03.292Z,15.57
2022-07-30T08:00:31.892Z,15.85
2022-07-30T08:02:59.529Z,15.93
2022-07-30T08:05:56.898Z,16.88
2022-07-30T08:08:15.049Z,16.58
2022-07-30T08:10:42.769Z,15.95
2022-07-30T08:13:51.497Z,18.17
2022-07-30T08:16:00.389Z,16.90
2022-07-30T08:18:28.298Z,16.40
2022-07-30T08:20:56.036Z,15.88
2022-07-30T08:23:24.938Z,16.60
2022-07-30T08:25:52.824Z,15.38
2022-07-30T08:28:35.775Z,15.73
2022-07-30T08:31:04.615Z,16.25
2022-07-30T08:33:32.337Z,15.50
2022-07-30T08:36:09.049Z,16.13
2022-07-30T08:38:38.414Z,14.65
2022-07-30T08:41:06.143Z,16.30
2022-07-30T08:43:36.581Z,15.40
2022-07-30T08:46:06.147Z,15.75
2022-07-30T08:48:34.417Z,16.92
2022-07-30T08:51:02.205Z,16.13
2022-07-30T08:53:29.924Z,16.00
2022-07-30T08:55:58.772Z,17.50
2022-07-30T08:58:30.188Z,15.25
2022-07-30T09:00:59.302Z,14.18
2022-07-30T09:03:26.984Z,15.95
2022-07-30T09:05:54.650Z,15.88
2022-07-30T09:08:22.328Z,15.98
2022-07-30T09:10:53.202Z,15.77
2022-07-30T09:13:25.534Z,16.85
2022-07-30T09:18:33.265Z,16.20
2022-07-30T09:21:01.940Z,14.63
2022-07-30T09:23:30.009Z,15.45
2022-07-30T09:26:00.572Z,16.23
2022-07-30T09:28:30.193Z,15.07
2022-07-30T09:30:58.319Z,14.15
2022-07-30T09:33:37.805Z,16.75
2022-07-30T09:36:07.014Z,14.85
2022-07-30T09:38:46.193Z,16.13
2022-07-30T09:41:36.283Z,15.07
2022-07-30T09:44:04.492Z,16.02
2022-07-30T09:46:42.197Z,14.88
2022-07-30T09:49:16.976Z,15.48
2022-07-30T09:51:56.643Z,14.98
2022-07-30T09:54:25.624Z,15.18
2022-07-30T09:57:25.726Z,13.82
2022-07-30T09:59:54.928Z,14.87
2022-07-30T10:02:23.006Z,14.98
2022-07-30T10:04:55.875Z,14.43
2022-07-30T10:07:25.555Z,14.52
2022-07-30T10:09:54.254Z,15.63
2022-07-30T10:12:23.928Z,14.45
2022-07-30T10:14:54.450Z,15.20
2022-07-30T10:17:23.374Z,15.45
2022-07-30T10:19:52.876Z,15.48
2022-07-30T10:22:23.692Z,14.63
2022-07-30T10:27:21.784Z,14.80
2022-07-30T10:29:50.656Z,14.40
2022-07-30T10:32:18.773Z,13.95
2022-07-30T10:34:59.398Z,14.65
2022-07-30T10:37:29.395Z,13.98
2022-07-30T10:40:01.762Z,14.05
2022-07-30T10:42:42.492Z,13.63
2022-07-30T10:45:18.362Z,14.43
2022-07-30T10:47:49.060Z,13.95
2022-07-30T10:50:19.436Z,14.35
2022-07-30T10:52:53.255Z,14.07
2022-07-30T10:55:36.917Z,13.57
2022-07-30T10:58:08.103Z,14.25
2022-07-30T11:00:37.484Z,13.90
2022-07-30T11:03:15.873Z,14.45
2022-07-30T11:05:45.837Z,14.10
2022-07-30T11:08:42.792Z,14.05
2022-07-30T11:12:01.432Z,13.50
2022-07-30T11:15:07.446Z,14.32
2022-07-30T11:20:43.203Z,14.05
2022-07-30T11:23:40.539Z,13.52
2022-07-30T11:26:08.491Z,14.75
2022-07-30T11:28:43.903Z,14.60
2022-07-30T11:31:54.748Z,14.20
2022-07-30T11:34:27.768Z,14.85
2022-07-30T11:37:18.426Z,14.20
2022-07-30T11:40:11.665Z,14.90
2022-07-30T11:42:41.638Z,14.77
2022-07-30T11:45:26.967Z,13.82
2022-07-30T11:47:56.046Z,13.85
2022-07-30T11:50:25.795Z,14.60
2022-07-30T11:52:54.784Z,14.98
2022-07-30T11:55:30.260Z,15.07
2022-07-30T11:57:59.082Z,14.82
2022-07-30T12:00:27.277Z,14.52
2022-07-30T12:02:54.916Z,14.55
2022-07-30T12:05:27.464Z,15.00
2022-07-30T12:07:59.092Z,14.00
2022-07-30T12:10:28.082Z,15.10
2022-07-30T12:13:08.074Z,14.07
2022-07-30T12:15:37.293Z,14.00
2022-07-30T12:18:25.400Z,13.05
2022-07-30T12:21:00.090Z,14.68
2022-07-30T12:23:28.192Z,13.70
2022-07-30T12:25:58.182Z,14.45
2022-07-30T12:28:28.435Z,13.82
2022-07-30T12:30:56.641Z,14.10
2022-07-30T12:33:24.921Z,15.02
2022-07-30T12:35:54.153Z,14.00
2022-07-30T12:38:24.062Z,13.57
2022-07-30T12:40:57.545Z,13.18
2022-07-30T12:43:48.298Z,13.77
2022-07-30T12:46:17.835Z,13.30
2022-07-30T12:48:57.024Z,13.52
2022-07-30T12:51:28.882Z,13.63
2022-07-30T12:53:58.119Z,14.52
2022-07-30T12:56:28.625Z,14.43
2022-07-30T12:58:57.964Z,13.70
2022-07-30T13:01:43.127Z,14.10
2022-07-30T13:04:14.389Z,13.80
2022-07-30T13:06:42.499Z,13.70
2022-07-30T13:09:20.137Z,14.63
2022-07-30T13:11:51.205Z,15.30
2022-07-30T13:14:19.196Z,13.88
2022-07-30T13:16:54.929Z,13.70
2022-07-30T13:19:22.633Z,13.57
2022-07-30T13:21:50.301Z,13.48
2022-07-30T13:24:18.457Z,14.00
2022-07-30T13:26:46.479Z,14.07
2022-07-30T13:29:15.479Z,13.68
2022-07-30T13:31:43.623Z,14.07
2022-07-30T13:34:11.898Z,13.70
2022-07-30T13:36:39.618Z,13.48
2022-07-30T13:39:07.321Z,14.27
2022-07-30T13:41:36.166Z,13.85
2022-07-30T13:44:04.587Z,14.45
2022-07-30T13:46:33.577Z,13.77
2022-07-30T13:49:01.225Z,13.15
2022-07-30T13:51:28.928Z,13.57
2022-07-30T13:53:56.617Z,14.18
2022-07-30T13:56:24.487Z,13.73
2022-07-30T13:58:52.093Z,14.23
2022-07-30T14:01:19.840Z,13.25
2022-07-30T14:03:50.701Z,14.68
2022-07-30T14:06:18.785Z,13.75
2022-07-30T14:08:46.759Z,14.25
2022-07-30T14:11:14.400Z,14.38
2022-07-30T14:13:42.191Z,13.18
2022-07-30T14:16:28.577Z,13.82
2022-07-30T14:18:58.821Z,13.90
2022-07-30T14:21:26.613Z,14.25
2022-07-30T14:23:54.979Z,14.30
2022-07-30T14:26:22.583Z,12.57
2022-07-30T14:28:50.197Z,13.88
2022-07-30T14:31:17.841Z,13.73
2022-07-30T14:33:45.447Z,14.23
2022-07-30T14:36:14.728Z,13.43
2022-07-30T14:38:42.405Z,13.80
2022-07-30T14:41:10.093Z,13.75
2022-07-30T14:43:37.778Z,14.32
2022-07-30T14:46:05.393Z,13.63
2022-07-30T14:48:33.041Z,13.95
2022-07-30T14:51:14.753Z,14.05
2022-07-30T14:53:50.646Z,13.07
2022-07-30T14:56:19.315Z,13.77
2022-07-30T14:58:46.934Z,14.30
2022-07-30T15:01:16.255Z,14.35
2022-07-30T15:03:44.665Z,14.27
2022-07-30T15:06:14.999Z,13.95
2022-07-30T15:08:42.682Z,13.70
2022-07-30T15:11:11.655Z,14.30
2022-07-30T15:13:41.748Z,13.80
2022-07-30T15:16:18.058Z,13.68
2022-07-30T15:18:45.887Z,13.48
2022-07-30T15:21:13.491Z,13.23
2022-07-30T15:23:41.101Z,13.15
2022-07-30T15:26:08.708Z,13.45
2022-07-30T15:28:38.650Z,13.70
2022-07-30T15:31:06.289Z,13.77
2022-07-30T15:33:37.134Z,13.40
2022-07-30T15:36:05.208Z,13.77
2022-07-30T15:38:33.451Z,13.60
2022-07-30T15:41:01.692Z,13.63
2022-07-30T15:43:29.359Z,13.40
2022-07-30T15:45:58.517Z,13.15
2022-07-30T15:48:27.710Z,13.27
2022-07-30T15:51:01.714Z,13.90
2022-07-30T15:53:30.264Z,14.68
2022-07-30T15:55:58.237Z,13.75
2022-07-30T15:58:26.047Z,13.75
2022-07-30T16:00:53.824Z,14.07
2022-07-30T16:03:22.952Z,14.68
2022-07-30T16:05:52.469Z,13.80
2022-07-30T16:08:20.597Z,13.80
2022-07-30T16:10:48.496Z,13.05
2022-07-30T16:13:16.386Z,13.60
2022-07-30T16:15:44.093Z,14.35
2022-07-30T16:18:11.774Z,13.80
2022-07-30T16:20:40.789Z,12.85
2022-07-30T16:23:13.920Z,13.05
2022-07-30T16:25:43.614Z,12.57
2022-07-30T16:28:11.295Z,14.18
2022-07-30T16:30:50.507Z,12.77
2022-07-30T16:33:19.605Z,12.98
2022-07-30T16:35:50.928Z,12.90
2022-07-30T16:40:46.918Z,12.85
2022-07-30T16:43:15.538Z,12.95
2022-07-30T16:45:44.639Z,13.60
2022-07-30T16:48:13.736Z,13.25
2022-07-30T16:50:41.409Z,13.27
2022-07-30T16:53:13.821Z,12.60
2022-07-30T16:55:42.250Z,12.43
2022-07-30T16:58:09.911Z,13.60
2022-07-30T17:00:37.897Z,12.57
2022-07-30T17:03:05.780Z,12.23
2022-07-30T17:05:33.516Z,14.25
2022-07-30T17:08:01.171Z,13.30
2022-07-30T17:10:30.229Z,13.90
2022-07-30T17:12:57.854Z,13.57
2022-07-30T17:15:31.957Z,13.95
2022-07-30T17:17:59.901Z,13.57
2022-07-30T17:20:29.180Z,12.95
2022-07-30T17:22:56.821Z,13.43
2022-07-30T17:25:27.252Z,13.88
2022-07-30T17:27:56.746Z,12.57
2022-07-30T17:30:24.639Z,13.00
2022-07-30T17:33:06.253Z,13.23
2022-07-30T17:35:34.198Z,13.02
2022-07-30T17:38:02.047Z,13.75
2022-07-30T17:40:31.561Z,13.27
2022-07-30T17:43:04.522Z,13.60
2022-07-30T17:45:32.892Z,12.93
2022-07-30T17:48:01.500Z,14.13
2022-07-30T17:50:29.438Z,13.60
2022-07-30T17:52:57.120Z,13.32
2022-07-30T17:55:25.180Z,13.05
2022-07-30T17:57:52.830Z,13.43
2022-07-30T18:00:21.904Z,12.90
2022-07-30T18:02:49.809Z,13.85
2022-07-30T18:05:17.541Z,12.48
2022-07-30T18:07:45.534Z,14.13
2022-07-30T18:10:13.428Z,13.35
2022-07-30T18:12:49.051Z,13.85
2022-07-30T18:15:17.618Z,14.18
2022-07-30T18:17:46.714Z,12.80
2022-07-30T18:20:15.081Z,13.70
2022-07-30T18:22:43.141Z,12.75
2022-07-30T18:25:18.776Z,13.40
2022-07-30T18:27:46.926Z,13.30
2022-07-30T18:30:14.829Z,13.38
2022-07-30T18:32:42.522Z,14.02
2022-07-30T18:35:14.666Z,13.05
2022-07-30T18:37:43.669Z,14.90
2022-07-30T18:40:12.706Z,13.52
2022-07-30T18:42:40.416Z,13.15
2022-07-30T18:45:09.088Z,13.50
2022-07-30T18:47:36.788Z,13.35
2022-07-30T18:50:05.032Z,13.15
2022-07-30T18:52:34.419Z,14.43
2022-07-30T18:55:02.471Z,13.43
2022-07-30T18:57:30.111Z,13.32
2022-07-30T18:59:57.788Z,13.77
2022-07-30T19:02:26.053Z,13.52
2022-07-30T19:04:53.859Z,13.40
2022-07-30T19:07:21.463Z,13.15
2022-07-30T19:09:50.618Z,13.52
2022-07-30T19:12:18.233Z,12.70
2022-07-30T19:14:45.891Z,13.70
2022-07-30T19:17:15.276Z,14.65
2022-07-30T19:19:43.217Z,13.40
2022-07-30T19:22:10.895Z,14.80
2022-07-30T19:24:38.681Z,13.95
2022-07-30T19:27:12.293Z,13.80
2022-07-30T19:29:42.055Z,13.43
2022-07-30T19:32:09.852Z,12.57
2022-07-30T19:34:37.560Z,13.60
2022-07-30T19:37:05.236Z,13.18
2022-07-30T19:39:34.975Z,13.45
2022-07-30T19:42:03.918Z,12.48
2022-07-30T19:44:35.861Z,13.88
2022-07-30T19:47:06.722Z,13.50
2022-07-30T19:49:40.349Z,13.10
2022-07-30T19:52:23.168Z,13.23
2022-07-30T19:54:51.706Z,14.80
2022-07-30T19:57:20.668Z,13.60
2022-07-30T19:59:59.721Z,13.68
2022-07-30T20:02:35.542Z,13.88
2022-07-30T20:05:03.927Z,13.15
2022-07-30T20:07:33.810Z,13.93
2022-07-30T20:10:03.246Z,13.50
2022-07-30T20:12:30.867Z,13.60
2022-07-30T20:14:59.859Z,14.55
2022-07-30T20:17:27.575Z,13.55
2022-07-30T20:19:59.379Z,14.27
2022-07-30T20:22:27.369Z,13.93
2022-07-30T20:24:55.565Z,14.48
2022-07-30T20:27:36.177Z,13.88
2022-07-30T20:30:08.600Z,13.68
2022-07-30T20:32:36.461Z,13.10
2022-07-30T20:35:04.249Z,13.32
2022-07-30T20:37:32.908Z,14.45
2022-07-30T20:40:21.307Z,13.48
2022-07-30T20:42:50.885Z,13.55
2022-07-30T20:45:24.239Z,13.18
2022-07-30T20:47:56.039Z,13.20
2022-07-30T20:50:30.905Z,13.10
2022-07-30T20:52:59.467Z,13.88
2022-07-30T20:55:27.271Z,14.63
2022-07-30T20:57:57.229Z,13.30
2022-07-30T21:00:31.892Z,13.18
2022-07-30T21:03:03.302Z,14.57
2022-07-30T21:05:32.712Z,13.55
2022-07-30T21:10:47.895Z,13.27
2022-07-30T21:13:15.769Z,13.93
2022-07-30T21:16:01.596Z,14.10
2022-07-30T21:18:31.004Z,13.77
2022-07-30T21:20:58.675Z,14.73
2022-07-30T21:23:28.465Z,14.00
2022-07-30T21:26:00.507Z,13.55
2022-07-30T21:28:35.109Z,13.50
2022-07-30T21:31:07.192Z,13.50
2022-07-30T21:33:35.908Z,13.07
2022-07-30T21:36:03.566Z,13.70
2022-07-30T21:38:31.873Z,13.75
2022-07-30T21:41:00.247Z,14.68
2022-07-30T21:43:30.462Z,13.98
2022-07-30T21:46:03.753Z,13.80
2022-07-30T21:48:35.516Z,13.85
2022-07-30T21:51:03.244Z,13.48
2022-07-30T21:53:46.137Z,12.43
2022-07-30T21:56:14.769Z,14.40
2022-07-30T21:58:43.598Z,14.52
2022-07-30T22:01:17.836Z,15.48
2022-07-30T22:04:04.763Z,14.93
2022-07-30T22:06:38.019Z,15.27
2022-07-30T22:09:19.170Z,15.15
2022-07-30T22:11:54.484Z,14.93
2022-07-30T22:14:25.511Z,14.90
2022-07-30T22:16:53.653Z,15.15
2022-07-30T22:19:23.874Z,16.05
2022-07-30T22:21:53.646Z,16.67
2022-07-30T22:24:29.396Z,16.00
2022-07-30T22:27:01.253Z,16.35
2022-07-30T22:29:34.106Z,14.97
2022-07-30T22:32:03.099Z,15.93
2022-07-30T22:34:32.629Z,16.55
2022-07-30T22:37:00.199Z,15.65
2022-07-30T22:39:32.224Z,16.38
2022-07-30T22:42:16.172Z,15.38
2022-07-30T22:44:46.288Z,14.85
2022-07-30T22:47:20.909Z,14.32
2022-07-30T22:49:52.947Z,15.65
2022-07-30T22:52:25.298Z,15.77
2022-07-30T22:54:54.288Z,14.80
2022-07-30T22:57:23.510Z,13.90
2022-07-30T22:59:58.251Z,14.68
2022-07-30T23:02:28.023Z,14.13
2022-07-30T23:04:57.005Z,14.23
2022-07-30T23:07:24.762Z,13.98
2022-07-30T23:10:17.658Z,15.10
2022-07-30T23:12:26.823Z,13.88
2022-07-30T23:12:48.253Z,13.77
2022-07-30T23:15:16.107Z,14.23
2022-07-30T23:17:44.398Z,13.52
2022-07-30T23:20:15.696Z,13.88
2022-07-30T23:22:43.448Z,13.13
2022-07-30T23:25:12.259Z,13.77
2022-07-30T23:27:40.577Z,13.65
2022-07-30T23:30:09.497Z,14.55
2022-07-30T23:32:38.001Z,14.32
2022-07-30T23:35:06.675Z,14.18
2022-07-30T23:37:49.067Z,15.45
2022-07-30T23:40:17.808Z,14.88
2022-07-30T23:42:45.414Z,14.73
2022-07-30T23:45:13.094Z,13.52
2022-07-30T23:48:01.088Z,14.15
2022-07-30T23:50:28.894Z,14.82
2022-07-30T23:52:57.888Z,13.48
2022-07-30T23:55:27.218Z,13.18
2022-07-30T23:57:55.012Z,12.60
